Albany, California
Current Conditions -  °F | °C
As of 8:53 AM on Friday 31 Oct 2014 (Local Time) from KOAK Reporting Station
Overcast Overcast  
Wind Chill: 64°   Ceiling: 3300
Heat Index: 64°   Visibility: 10mi
Dew Point: 55°   Wind: 16mph
Humidity: 72%   Direction: 180°S
Pressure: 29.87"   Gusts: NA
Location:  37.89°N, 122.29°W
Report Text: KOAK 311553Z 18014KT 10SM BKN033 OVC100 18/13 A2987 RMK AO2 SLP113 T01780128
Loading
Personal Weather Stations






























Interactive Weather Map
Tropical Storm Tracking
New forecast layout! Learn more

10-Day Weather Forecast

Advertisements
Track Severe Weather on mobile